Terminal Aerodrome Forecast
Issued by NWS Cleveland, OH

Home | Current Version | Previous Version | Graphics & Text | Print | Product List | Glossary On
Versions: 1 2 3 4 5 6 7 8 9 10 11 12 13 14
000
FTUS41 KCLE 081130
TAFTOL
TAF
KTOL 081130Z 0812/0912 26012G18KT P6SM OVC025
     FM081800 26020G30KT P6SM OVC030
     FM090100 27014G22KT P6SM -SHSN OVC025=

USA.gov is the U.S. government's official web portal to all federal, state and local government web resources and services.